sensor_id;sensor_type;location;lat;lon;timestamp;P1;durP1;ratioP1;P2;durP2;ratioP2
18917;SDS011;9591;52.742;13.650;2024-03-06T00:00:49;21.40;;;10.13;;
18917;SDS011;9591;52.742;13.650;2024-03-06T00:03:39;19.73;;;8.90;;
18917;SDS011;9591;52.742;13.650;2024-03-06T00:06:26;20.90;;;8.63;;
18917;SDS011;9591;52.742;13.650;2024-03-06T00:09:14;23.20;;;8.97;;
18917;SDS011;9591;52.742;13.650;2024-03-06T00:12:01;16.10;;;8.00;;
18917;SDS011;9591;52.742;13.650;2024-03-06T00:14:56;16.20;;;8.53;;
18917;SDS011;9591;52.742;13.650;2024-03-06T00:17:44;18.37;;;8.80;;
18917;SDS011;9591;52.742;13.650;2024-03-06T00:20:34;17.67;;;8.47;;
18917;SDS011;9591;52.742;13.650;2024-03-06T00:23:21;18.30;;;8.97;;
18917;SDS011;9591;52.742;13.650;2024-03-06T00:26:08;17.53;;;9.27;;
18917;SDS011;9591;52.742;13.650;2024-03-06T00:28:58;14.17;;;8.50;;
18917;SDS011;9591;52.742;13.650;2024-03-06T00:31:45;15.93;;;8.63;;
18917;SDS011;9591;52.742;13.650;2024-03-06T00:34:35;15.27;;;8.03;;
18917;SDS011;9591;52.742;13.650;2024-03-06T00:37:23;18.67;;;8.63;;
18917;SDS011;9591;52.742;13.650;2024-03-06T00:40:12;19.90;;;9.23;;
18917;SDS011;9591;52.742;13.650;2024-03-06T00:43:01;22.17;;;9.63;;
18917;SDS011;9591;52.742;13.650;2024-03-06T00:46:05;18.40;;;9.00;;
18917;SDS011;9591;52.742;13.650;2024-03-06T00:52:09;19.20;;;9.17;;
18917;SDS011;9591;52.742;13.650;2024-03-06T00:54:57;14.80;;;8.77;;
18917;SDS011;9591;52.742;13.650;2024-03-06T00:57:51;20.23;;;8.83;;
18917;SDS011;9591;52.742;13.650;2024-03-06T01:00:40;26.90;;;11.07;;
18917;SDS011;9591;52.742;13.650;2024-03-06T01:03:27;17.30;;;8.93;;
18917;SDS011;9591;52.742;13.650;2024-03-06T01:06:14;17.27;;;9.10;;
18917;SDS011;9591;52.742;13.650;2024-03-06T01:09:11;21.03;;;9.90;;
18917;SDS011;9591;52.742;13.650;2024-03-06T01:12:00;17.83;;;9.10;;
18917;SDS011;9591;52.742;13.650;2024-03-06T01:14:47;17.23;;;8.83;;
18917;SDS011;9591;52.742;13.650;2024-03-06T01:17:39;22.20;;;9.73;;
18917;SDS011;9591;52.742;13.650;2024-03-06T01:20:26;18.73;;;8.40;;
18917;SDS011;9591;52.742;13.650;2024-03-06T01:23:15;24.77;;;10.47;;
18917;SDS011;9591;52.742;13.650;2024-03-06T01:26:06;18.47;;;9.00;;
18917;SDS011;9591;52.742;13.650;2024-03-06T01:28:54;17.10;;;9.43;;
18917;SDS011;9591;52.742;13.650;2024-03-06T01:31:41;19.07;;;8.60;;
18917;SDS011;9591;52.742;13.650;2024-03-06T01:34:28;27.10;;;9.70;;
18917;SDS011;9591;52.742;13.650;2024-03-06T01:37:15;17.43;;;9.10;;
18917;SDS011;9591;52.742;13.650;2024-03-06T01:40:02;17.23;;;9.30;;
18917;SDS011;9591;52.742;13.650;2024-03-06T01:42:52;21.13;;;9.83;;
18917;SDS011;9591;52.742;13.650;2024-03-06T01:45:49;24.17;;;9.10;;
18917;SDS011;9591;52.742;13.650;2024-03-06T01:48:41;20.00;;;9.80;;
18917;SDS011;9591;52.742;13.650;2024-03-06T01:51:31;19.33;;;9.03;;
18917;SDS011;9591;52.742;13.650;2024-03-06T01:54:20;22.00;;;9.23;;
18917;SDS011;9591;52.742;13.650;2024-03-06T01:57:12;19.87;;;9.53;;
18917;SDS011;9591;52.742;13.650;2024-03-06T02:00:09;19.43;;;8.67;;
18917;SDS011;9591;52.742;13.650;2024-03-06T02:03:06;23.20;;;9.50;;
18917;SDS011;9591;52.742;13.650;2024-03-06T02:05:58;18.20;;;8.37;;
18917;SDS011;9591;52.742;13.650;2024-03-06T02:08:51;19.53;;;9.40;;
18917;SDS011;9591;52.742;13.650;2024-03-06T02:11:41;22.70;;;9.93;;
18917;SDS011;9591;52.742;13.650;2024-03-06T02:14:28;22.50;;;9.87;;
18917;SDS011;9591;52.742;13.650;2024-03-06T02:17:19;20.03;;;9.17;;
18917;SDS011;9591;52.742;13.650;2024-03-06T02:23:31;23.80;;;10.17;;
18917;SDS011;9591;52.742;13.650;2024-03-06T02:26:19;17.43;;;9.30;;
18917;SDS011;9591;52.742;13.650;2024-03-06T02:29:06;17.50;;;9.43;;
18917;SDS011;9591;52.742;13.650;2024-03-06T02:31:56;23.50;;;9.37;;
18917;SDS011;9591;52.742;13.650;2024-03-06T02:34:48;20.27;;;8.80;;
18917;SDS011;9591;52.742;13.650;2024-03-06T02:37:42;17.10;;;9.33;;
18917;SDS011;9591;52.742;13.650;2024-03-06T02:40:29;18.03;;;8.90;;
18917;SDS011;9591;52.742;13.650;2024-03-06T02:43:19;25.15;;;11.82;;
18917;SDS011;9591;52.742;13.650;2024-03-06T02:46:08;18.67;;;8.93;;
18917;SDS011;9591;52.742;13.650;2024-03-06T02:49:00;22.03;;;9.30;;
18917;SDS011;9591;52.742;13.650;2024-03-06T02:51:47;23.73;;;9.80;;
18917;SDS011;9591;52.742;13.650;2024-03-06T02:54:38;20.40;;;10.77;;
18917;SDS011;9591;52.742;13.650;2024-03-06T02:57:37;21.30;;;9.23;;
18917;SDS011;9591;52.742;13.650;2024-03-06T03:00:24;20.20;;;9.60;;
18917;SDS011;9591;52.742;13.650;2024-03-06T03:03:13;17.73;;;9.70;;
18917;SDS011;9591;52.742;13.650;2024-03-06T03:06:02;22.10;;;9.23;;
18917;SDS011;9591;52.742;13.650;2024-03-06T03:08:58;21.03;;;10.00;;
18917;SDS011;9591;52.742;13.650;2024-03-06T03:11:52;23.20;;;9.20;;
18917;SDS011;9591;52.742;13.650;2024-03-06T03:14:45;20.67;;;9.30;;
18917;SDS011;9591;52.742;13.650;2024-03-06T03:17:32;22.80;;;10.03;;
18917;SDS011;9591;52.742;13.650;2024-03-06T03:20:24;20.70;;;9.10;;
18917;SDS011;9591;52.742;13.650;2024-03-06T03:23:11;20.27;;;8.80;;
18917;SDS011;9591;52.742;13.650;2024-03-06T03:26:05;28.73;;;10.50;;
18917;SDS011;9591;52.742;13.650;2024-03-06T03:28:58;20.50;;;8.97;;
18917;SDS011;9591;52.742;13.650;2024-03-06T03:31:45;19.87;;;9.07;;
18917;SDS011;9591;52.742;13.650;2024-03-06T03:34:33;22.13;;;9.97;;
18917;SDS011;9591;52.742;13.650;2024-03-06T03:37:21;21.67;;;9.90;;
18917;SDS011;9591;52.742;13.650;2024-03-06T03:40:10;20.77;;;8.63;;
18917;SDS011;9591;52.742;13.650;2024-03-06T03:42:58;19.53;;;9.40;;
18917;SDS011;9591;52.742;13.650;2024-03-06T03:45:55;20.83;;;9.43;;
18917;SDS011;9591;52.742;13.650;2024-03-06T03:48:42;16.97;;;8.33;;
18917;SDS011;9591;52.742;13.650;2024-03-06T03:51:33;19.57;;;9.87;;
18917;SDS011;9591;52.742;13.650;2024-03-06T03:54:20;18.70;;;9.33;;
18917;SDS011;9591;52.742;13.650;2024-03-06T03:57:11;20.40;;;9.60;;
18917;SDS011;9591;52.742;13.650;2024-03-06T04:00:01;15.90;;;8.50;;
18917;SDS011;9591;52.742;13.650;2024-03-06T04:03:38;21.33;;;9.07;;
18917;SDS011;9591;52.742;13.650;2024-03-06T04:06:26;25.20;;;10.30;;
18917;SDS011;9591;52.742;13.650;2024-03-06T04:09:13;20.67;;;9.60;;
18917;SDS011;9591;52.742;13.650;2024-03-06T04:12:02;27.17;;;10.77;;
18917;SDS011;9591;52.742;13.650;2024-03-06T04:14:53;23.67;;;9.83;;
18917;SDS011;9591;52.742;13.650;2024-03-06T04:17:40;26.40;;;10.87;;
18917;SDS011;9591;52.742;13.650;2024-03-06T04:20:32;21.93;;;10.60;;
18917;SDS011;9591;52.742;13.650;2024-03-06T04:23:19;19.67;;;9.30;;
18917;SDS011;9591;52.742;13.650;2024-03-06T04:26:07;22.27;;;9.37;;
18917;SDS011;9591;52.742;13.650;2024-03-06T04:28:54;20.53;;;9.87;;
18917;SDS011;9591;52.742;13.650;2024-03-06T04:31:41;27.33;;;10.70;;
18917;SDS011;9591;52.742;13.650;2024-03-06T04:34:30;23.20;;;10.23;;
18917;SDS011;9591;52.742;13.650;2024-03-06T04:37:19;25.83;;;11.10;;
18917;SDS011;9591;52.742;13.650;2024-03-06T04:40:08;24.17;;;10.37;;
18917;SDS011;9591;52.742;13.650;2024-03-06T04:43:05;18.17;;;9.37;;
18917;SDS011;9591;52.742;13.650;2024-03-06T04:45:53;21.70;;;9.90;;
18917;SDS011;9591;52.742;13.650;2024-03-06T04:48:44;21.33;;;10.00;;
18917;SDS011;9591;52.742;13.650;2024-03-06T04:51:34;24.50;;;8.77;;
18917;SDS011;9591;52.742;13.650;2024-03-06T04:54:23;18.13;;;8.60;;
18917;SDS011;9591;52.742;13.650;2024-03-06T04:57:17;18.77;;;8.57;;
18917;SDS011;9591;52.742;13.650;2024-03-06T05:00:09;19.27;;;9.27;;
18917;SDS011;9591;52.742;13.650;2024-03-06T05:02:59;18.27;;;7.97;;
18917;SDS011;9591;52.742;13.650;2024-03-06T05:06:06;16.83;;;8.53;;
18917;SDS011;9591;52.742;13.650;2024-03-06T05:09:14;19.30;;;8.43;;
18917;SDS011;9591;52.742;13.650;2024-03-06T05:12:21;15.80;;;7.57;;
18917;SDS011;9591;52.742;13.650;2024-03-06T05:15:28;16.17;;;8.43;;
18917;SDS011;9591;52.742;13.650;2024-03-06T05:18:35;23.23;;;9.30;;
18917;SDS011;9591;52.742;13.650;2024-03-06T05:21:40;18.67;;;8.10;;
18917;SDS011;9591;52.742;13.650;2024-03-06T05:24:46;19.70;;;9.30;;
18917;SDS011;9591;52.742;13.650;2024-03-06T05:27:55;21.87;;;8.93;;
18917;SDS011;9591;52.742;13.650;2024-03-06T05:31:00;19.30;;;7.90;;
18917;SDS011;9591;52.742;13.650;2024-03-06T05:34:04;19.00;;;8.77;;
18917;SDS011;9591;52.742;13.650;2024-03-06T05:37:09;17.80;;;7.67;;
18917;SDS011;9591;52.742;13.650;2024-03-06T05:40:16;24.00;;;8.20;;
18917;SDS011;9591;52.742;13.650;2024-03-06T05:43:22;17.00;;;8.53;;
18917;SDS011;9591;52.742;13.650;2024-03-06T05:46:26;21.83;;;8.63;;
18917;SDS011;9591;52.742;13.650;2024-03-06T05:49:31;19.13;;;8.77;;
18917;SDS011;9591;52.742;13.650;2024-03-06T05:52:36;19.40;;;8.63;;
18917;SDS011;9591;52.742;13.650;2024-03-06T05:55:40;21.03;;;9.47;;
18917;SDS011;9591;52.742;13.650;2024-03-06T05:58:48;22.00;;;8.87;;
18917;SDS011;9591;52.742;13.650;2024-03-06T06:01:44;14.87;;;8.23;;
18917;SDS011;9591;52.742;13.650;2024-03-06T06:04:37;17.43;;;9.03;;
18917;SDS011;9591;52.742;13.650;2024-03-06T06:07:35;24.50;;;9.93;;
18917;SDS011;9591;52.742;13.650;2024-03-06T06:10:25;20.83;;;9.60;;
18917;SDS011;9591;52.742;13.650;2024-03-06T06:13:14;20.37;;;9.70;;
18917;SDS011;9591;52.742;13.650;2024-03-06T06:16:04;18.27;;;8.23;;
18917;SDS011;9591;52.742;13.650;2024-03-06T06:18:58;22.60;;;8.87;;
18917;SDS011;9591;52.742;13.650;2024-03-06T06:21:47;23.07;;;9.13;;
18917;SDS011;9591;52.742;13.650;2024-03-06T06:24:34;20.97;;;8.43;;
18917;SDS011;9591;52.742;13.650;2024-03-06T06:27:24;17.70;;;9.07;;
18917;SDS011;9591;52.742;13.650;2024-03-06T06:30:11;19.70;;;9.50;;
18917;SDS011;9591;52.742;13.650;2024-03-06T06:33:00;22.53;;;10.03;;
18917;SDS011;9591;52.742;13.650;2024-03-06T06:35:48;22.10;;;10.17;;
18917;SDS011;9591;52.742;13.650;2024-03-06T06:38:40;23.77;;;10.07;;
18917;SDS011;9591;52.742;13.650;2024-03-06T06:41:29;21.83;;;10.30;;
18917;SDS011;9591;52.742;13.650;2024-03-06T06:44:17;19.73;;;9.80;;
18917;SDS011;9591;52.742;13.650;2024-03-06T06:47:06;24.67;;;9.90;;
18917;SDS011;9591;52.742;13.650;2024-03-06T06:49:54;20.83;;;9.37;;
18917;SDS011;9591;52.742;13.650;2024-03-06T06:52:44;23.87;;;9.87;;
18917;SDS011;9591;52.742;13.650;2024-03-06T06:55:32;21.47;;;10.10;;
18917;SDS011;9591;52.742;13.650;2024-03-06T06:58:19;22.90;;;9.03;;
18917;SDS011;9591;52.742;13.650;2024-03-06T07:01:07;15.30;;;8.37;;
18917;SDS011;9591;52.742;13.650;2024-03-06T07:03:56;18.97;;;9.53;;
18917;SDS011;9591;52.742;13.650;2024-03-06T07:06:49;21.07;;;10.20;;
18917;SDS011;9591;52.742;13.650;2024-03-06T07:09:42;19.03;;;9.27;;
18917;SDS011;9591;52.742;13.650;2024-03-06T07:12:29;17.87;;;9.10;;
18917;SDS011;9591;52.742;13.650;2024-03-06T07:15:21;22.03;;;9.37;;
18917;SDS011;9591;52.742;13.650;2024-03-06T07:21:20;21.07;;;11.20;;
18917;SDS011;9591;52.742;13.650;2024-03-06T07:24:11;27.23;;;11.53;;
18917;SDS011;9591;52.742;13.650;2024-03-06T07:26:58;24.33;;;11.70;;
18917;SDS011;9591;52.742;13.650;2024-03-06T07:29:49;26.63;;;11.53;;
18917;SDS011;9591;52.742;13.650;2024-03-06T07:32:38;24.70;;;11.53;;
18917;SDS011;9591;52.742;13.650;2024-03-06T07:35:25;21.43;;;10.60;;
18917;SDS011;9591;52.742;13.650;2024-03-06T07:38:12;29.00;;;11.97;;
18917;SDS011;9591;52.742;13.650;2024-03-06T07:41:05;22.90;;;11.47;;
18917;SDS011;9591;52.742;13.650;2024-03-06T07:43:56;28.27;;;10.80;;
18917;SDS011;9591;52.742;13.650;2024-03-06T07:46:46;31.67;;;12.27;;
18917;SDS011;9591;52.742;13.650;2024-03-06T07:49:35;29.70;;;11.40;;
18917;SDS011;9591;52.742;13.650;2024-03-06T07:52:22;23.83;;;10.77;;
18917;SDS011;9591;52.742;13.650;2024-03-06T07:55:12;25.83;;;11.00;;
18917;SDS011;9591;52.742;13.650;2024-03-06T07:58:01;24.10;;;12.50;;
18917;SDS011;9591;52.742;13.650;2024-03-06T08:00:50;23.87;;;11.10;;
18917;SDS011;9591;52.742;13.650;2024-03-06T08:03:44;22.07;;;10.60;;
18917;SDS011;9591;52.742;13.650;2024-03-06T08:06:36;26.87;;;10.83;;
18917;SDS011;9591;52.742;13.650;2024-03-06T08:09:23;25.33;;;11.37;;
18917;SDS011;9591;52.742;13.650;2024-03-06T08:12:18;26.73;;;11.60;;
18917;SDS011;9591;52.742;13.650;2024-03-06T08:15:10;20.20;;;10.10;;
18917;SDS011;9591;52.742;13.650;2024-03-06T08:18:14;21.80;;;10.13;;
18917;SDS011;9591;52.742;13.650;2024-03-06T08:21:01;21.93;;;10.30;;
18917;SDS011;9591;52.742;13.650;2024-03-06T08:23:50;21.07;;;9.07;;
18917;SDS011;9591;52.742;13.650;2024-03-06T08:26:37;23.10;;;10.40;;
18917;SDS011;9591;52.742;13.650;2024-03-06T08:29:26;21.60;;;10.50;;
18917;SDS011;9591;52.742;13.650;2024-03-06T08:32:15;20.87;;;10.80;;
18917;SDS011;9591;52.742;13.650;2024-03-06T08:35:04;25.53;;;11.73;;
18917;SDS011;9591;52.742;13.650;2024-03-06T08:38:07;24.97;;;11.00;;
18917;SDS011;9591;52.742;13.650;2024-03-06T08:40:58;23.30;;;10.03;;
18917;SDS011;9591;52.742;13.650;2024-03-06T08:43:46;19.77;;;9.93;;
18917;SDS011;9591;52.742;13.650;2024-03-06T08:46:33;24.70;;;10.73;;
18917;SDS011;9591;52.742;13.650;2024-03-06T08:49:23;22.77;;;10.20;;
18917;SDS011;9591;52.742;13.650;2024-03-06T08:52:10;18.70;;;10.00;;
18917;SDS011;9591;52.742;13.650;2024-03-06T08:55:00;21.53;;;10.93;;
18917;SDS011;9591;52.742;13.650;2024-03-06T08:57:57;21.13;;;10.87;;
18917;SDS011;9591;52.742;13.650;2024-03-06T09:00:48;24.27;;;10.67;;
18917;SDS011;9591;52.742;13.650;2024-03-06T09:03:35;22.40;;;10.40;;
18917;SDS011;9591;52.742;13.650;2024-03-06T09:06:27;27.40;;;12.13;;
18917;SDS011;9591;52.742;13.650;2024-03-06T09:09:16;22.00;;;10.27;;
18917;SDS011;9591;52.742;13.650;2024-03-06T09:12:06;24.30;;;10.57;;
18917;SDS011;9591;52.742;13.650;2024-03-06T09:14:57;29.83;;;13.50;;
18917;SDS011;9591;52.742;13.650;2024-03-06T09:17:46;29.93;;;12.17;;
18917;SDS011;9591;52.742;13.650;2024-03-06T09:20:34;31.90;;;13.43;;
18917;SDS011;9591;52.742;13.650;2024-03-06T09:23:26;27.37;;;12.57;;
18917;SDS011;9591;52.742;13.650;2024-03-06T09:26:19;28.03;;;12.50;;
18917;SDS011;9591;52.742;13.650;2024-03-06T09:29:06;29.53;;;12.97;;
18917;SDS011;9591;52.742;13.650;2024-03-06T09:31:53;26.73;;;12.37;;
18917;SDS011;9591;52.742;13.650;2024-03-06T09:34:40;34.40;;;13.97;;
18917;SDS011;9591;52.742;13.650;2024-03-06T09:37:29;29.90;;;14.00;;
18917;SDS011;9591;52.742;13.650;2024-03-06T09:40:26;32.53;;;14.53;;
18917;SDS011;9591;52.742;13.650;2024-03-06T09:43:19;29.83;;;13.77;;
18917;SDS011;9591;52.742;13.650;2024-03-06T09:46:08;30.67;;;12.83;;
18917;SDS011;9591;52.742;13.650;2024-03-06T09:48:55;29.07;;;12.53;;
18917;SDS011;9591;52.742;13.650;2024-03-06T09:51:56;25.90;;;11.43;;
18917;SDS011;9591;52.742;13.650;2024-03-06T09:54:51;25.30;;;12.17;;
18917;SDS011;9591;52.742;13.650;2024-03-06T09:57:44;24.17;;;12.67;;
18917;SDS011;9591;52.742;13.650;2024-03-06T10:00:32;24.37;;;11.73;;
18917;SDS011;9591;52.742;13.650;2024-03-06T10:03:21;22.53;;;11.57;;
18917;SDS011;9591;52.742;13.650;2024-03-06T10:06:08;25.83;;;11.30;;
18917;SDS011;9591;52.742;13.650;2024-03-06T10:09:04;23.00;;;12.07;;
18917;SDS011;9591;52.742;13.650;2024-03-06T10:11:55;27.23;;;12.90;;
18917;SDS011;9591;52.742;13.650;2024-03-06T10:14:55;25.90;;;12.00;;
18917;SDS011;9591;52.742;13.650;2024-03-06T10:17:43;23.30;;;11.23;;
18917;SDS011;9591;52.742;13.650;2024-03-06T10:20:33;30.03;;;12.73;;
18917;SDS011;9591;52.742;13.650;2024-03-06T10:23:21;25.60;;;12.53;;
18917;SDS011;9591;52.742;13.650;2024-03-06T10:26:08;24.50;;;11.03;;
18917;SDS011;9591;52.742;13.650;2024-03-06T10:28:55;22.13;;;10.53;;
18917;SDS011;9591;52.742;13.650;2024-03-06T10:31:49;21.77;;;10.43;;
18917;SDS011;9591;52.742;13.650;2024-03-06T10:34:44;23.63;;;11.23;;
18917;SDS011;9591;52.742;13.650;2024-03-06T10:37:37;24.30;;;11.13;;
18917;SDS011;9591;52.742;13.650;2024-03-06T10:40:26;18.00;;;10.20;;
18917;SDS011;9591;52.742;13.650;2024-03-06T10:43:20;18.70;;;10.60;;
18917;SDS011;9591;52.742;13.650;2024-03-06T10:46:15;19.07;;;10.03;;
18917;SDS011;9591;52.742;13.650;2024-03-06T10:49:08;23.43;;;11.23;;
18917;SDS011;9591;52.742;13.650;2024-03-06T10:51:59;20.43;;;10.60;;
18917;SDS011;9591;52.742;13.650;2024-03-06T10:54:53;21.17;;;10.73;;
18917;SDS011;9591;52.742;13.650;2024-03-06T10:57:47;20.57;;;10.73;;
18917;SDS011;9591;52.742;13.650;2024-03-06T11:00:37;18.47;;;10.13;;
18917;SDS011;9591;52.742;13.650;2024-03-06T11:03:44;23.00;;;11.07;;
18917;SDS011;9591;52.742;13.650;2024-03-06T11:06:43;21.33;;;11.20;;
18917;SDS011;9591;52.742;13.650;2024-03-06T11:09:32;18.07;;;10.20;;
18917;SDS011;9591;52.742;13.650;2024-03-06T11:12:35;22.40;;;11.03;;
18917;SDS011;9591;52.742;13.650;2024-03-06T11:15:24;20.23;;;9.23;;
18917;SDS011;9591;52.742;13.650;2024-03-06T11:21:46;34.97;;;14.70;;
18917;SDS011;9591;52.742;13.650;2024-03-06T11:24:36;41.67;;;16.47;;
18917;SDS011;9591;52.742;13.650;2024-03-06T11:34:29;47.13;;;16.30;;
18917;SDS011;9591;52.742;13.650;2024-03-06T11:37:20;35.60;;;14.47;;
18917;SDS011;9591;52.742;13.650;2024-03-06T11:40:16;43.03;;;16.47;;
18917;SDS011;9591;52.742;13.650;2024-03-06T11:43:22;48.50;;;16.90;;
18917;SDS011;9591;52.742;13.650;2024-03-06T11:46:10;48.63;;;17.30;;
18917;SDS011;9591;52.742;13.650;2024-03-06T11:48:59;49.80;;;17.40;;
18917;SDS011;9591;52.742;13.650;2024-03-06T11:51:46;36.93;;;14.13;;
18917;SDS011;9591;52.742;13.650;2024-03-06T11:54:37;43.40;;;15.73;;
18917;SDS011;9591;52.742;13.650;2024-03-06T11:57:27;53.30;;;16.97;;
18917;SDS011;9591;52.742;13.650;2024-03-06T12:00:14;48.03;;;15.07;;
18917;SDS011;9591;52.742;13.650;2024-03-06T12:03:01;49.70;;;16.57;;
18917;SDS011;9591;52.742;13.650;2024-03-06T12:05:52;47.20;;;14.80;;
18917;SDS011;9591;52.742;13.650;2024-03-06T12:08:39;48.93;;;17.77;;
18917;SDS011;9591;52.742;13.650;2024-03-06T12:11:38;47.33;;;17.33;;
18917;SDS011;9591;52.742;13.650;2024-03-06T12:14:25;58.30;;;19.90;;
18917;SDS011;9591;52.742;13.650;2024-03-06T12:17:12;64.57;;;21.07;;
18917;SDS011;9591;52.742;13.650;2024-03-06T12:20:02;63.63;;;20.87;;
18917;SDS011;9591;52.742;13.650;2024-03-06T12:22:56;62.07;;;21.07;;
18917;SDS011;9591;52.742;13.650;2024-03-06T12:25:48;59.00;;;19.40;;
18917;SDS011;9591;52.742;13.650;2024-03-06T12:28:54;53.87;;;17.77;;
18917;SDS011;9591;52.742;13.650;2024-03-06T12:31:51;56.40;;;19.27;;
18917;SDS011;9591;52.742;13.650;2024-03-06T12:34:41;65.67;;;20.83;;
18917;SDS011;9591;52.742;13.650;2024-03-06T12:37:28;58.10;;;19.17;;
18917;SDS011;9591;52.742;13.650;2024-03-06T12:40:21;55.10;;;19.00;;
18917;SDS011;9591;52.742;13.650;2024-03-06T12:43:16;49.07;;;17.50;;
18917;SDS011;9591;52.742;13.650;2024-03-06T12:46:09;48.83;;;17.23;;
18917;SDS011;9591;52.742;13.650;2024-03-06T12:48:58;56.10;;;18.97;;
18917;SDS011;9591;52.742;13.650;2024-03-06T12:51:45;57.03;;;20.03;;
18917;SDS011;9591;52.742;13.650;2024-03-06T12:54:39;55.73;;;19.83;;
18917;SDS011;9591;52.742;13.650;2024-03-06T12:57:26;61.27;;;21.10;;
18917;SDS011;9591;52.742;13.650;2024-03-06T13:00:14;62.10;;;19.77;;
18917;SDS011;9591;52.742;13.650;2024-03-06T13:03:05;52.93;;;19.53;;
18917;SDS011;9591;52.742;13.650;2024-03-06T13:05:57;60.57;;;20.77;;
18917;SDS011;9591;52.742;13.650;2024-03-06T13:08:44;59.23;;;20.00;;
18917;SDS011;9591;52.742;13.650;2024-03-06T13:11:40;59.60;;;20.27;;
18917;SDS011;9591;52.742;13.650;2024-03-06T13:14:28;56.10;;;19.57;;
18917;SDS011;9591;52.742;13.650;2024-03-06T13:17:16;42.10;;;16.03;;
18917;SDS011;9591;52.742;13.650;2024-03-06T13:20:07;37.57;;;13.70;;
18917;SDS011;9591;52.742;13.650;2024-03-06T13:22:58;41.17;;;14.37;;
18917;SDS011;9591;52.742;13.650;2024-03-06T13:25:45;31.97;;;12.03;;
18917;SDS011;9591;52.742;13.650;2024-03-06T13:28:34;31.87;;;11.87;;
18917;SDS011;9591;52.742;13.650;2024-03-06T13:31:23;25.20;;;9.77;;
18917;SDS011;9591;52.742;13.650;2024-03-06T13:34:12;26.40;;;11.53;;
18917;SDS011;9591;52.742;13.650;2024-03-06T13:37:03;28.87;;;12.00;;
18917;SDS011;9591;52.742;13.650;2024-03-06T13:39:56;38.90;;;14.27;;
18917;SDS011;9591;52.742;13.650;2024-03-06T13:42:48;32.00;;;12.30;;
18917;SDS011;9591;52.742;13.650;2024-03-06T13:45:37;35.97;;;13.30;;
18917;SDS011;9591;52.742;13.650;2024-03-06T13:48:29;27.97;;;11.67;;
18917;SDS011;9591;52.742;13.650;2024-03-06T13:51:19;31.37;;;13.13;;
18917;SDS011;9591;52.742;13.650;2024-03-06T13:54:10;32.27;;;12.23;;
18917;SDS011;9591;52.742;13.650;2024-03-06T13:56:57;30.67;;;13.00;;
18917;SDS011;9591;52.742;13.650;2024-03-06T14:00:00;22.07;;;10.87;;
18917;SDS011;9591;52.742;13.650;2024-03-06T14:02:55;28.70;;;11.47;;
18917;SDS011;9591;52.742;13.650;2024-03-06T14:05:43;25.67;;;10.43;;
18917;SDS011;9591;52.742;13.650;2024-03-06T14:08:31;25.80;;;11.70;;
18917;SDS011;9591;52.742;13.650;2024-03-06T14:11:22;27.23;;;11.80;;
18917;SDS011;9591;52.742;13.650;2024-03-06T14:14:18;27.63;;;10.77;;
18917;SDS011;9591;52.742;13.650;2024-03-06T14:17:14;24.37;;;10.67;;
18917;SDS011;9591;52.742;13.650;2024-03-06T14:20:06;24.37;;;11.50;;
18917;SDS011;9591;52.742;13.650;2024-03-06T14:22:58;22.43;;;10.60;;
18917;SDS011;9591;52.742;13.650;2024-03-06T14:25:47;21.10;;;9.77;;
18917;SDS011;9591;52.742;13.650;2024-03-06T14:28:36;15.30;;;9.23;;
18917;SDS011;9591;52.742;13.650;2024-03-06T14:31:23;16.63;;;9.67;;
18917;SDS011;9591;52.742;13.650;2024-03-06T14:34:12;22.20;;;10.00;;
18917;SDS011;9591;52.742;13.650;2024-03-06T14:37:01;21.63;;;9.70;;
18917;SDS011;9591;52.742;13.650;2024-03-06T14:39:53;19.20;;;10.03;;
18917;SDS011;9591;52.742;13.650;2024-03-06T14:42:40;19.67;;;9.60;;
18917;SDS011;9591;52.742;13.650;2024-03-06T14:45:31;16.07;;;8.57;;
18917;SDS011;9591;52.742;13.650;2024-03-06T14:48:18;16.00;;;8.80;;
18917;SDS011;9591;52.742;13.650;2024-03-06T14:51:06;15.07;;;9.17;;
18917;SDS011;9591;52.742;13.650;2024-03-06T14:53:55;15.87;;;9.43;;
18917;SDS011;9591;52.742;13.650;2024-03-06T14:56:45;16.77;;;8.40;;
18917;SDS011;9591;52.742;13.650;2024-03-06T14:59:33;14.87;;;8.93;;
18917;SDS011;9591;52.742;13.650;2024-03-06T15:02:25;17.27;;;8.87;;
18917;SDS011;9591;52.742;13.650;2024-03-06T15:05:11;15.33;;;8.83;;
18917;SDS011;9591;52.742;13.650;2024-03-06T15:08:01;18.17;;;9.63;;
18917;SDS011;9591;52.742;13.650;2024-03-06T15:10:50;21.13;;;10.03;;
18917;SDS011;9591;52.742;13.650;2024-03-06T15:13:43;18.00;;;9.50;;
18917;SDS011;9591;52.742;13.650;2024-03-06T15:16:33;15.63;;;8.60;;
18917;SDS011;9591;52.742;13.650;2024-03-06T15:19:21;18.47;;;9.00;;
18917;SDS011;9591;52.742;13.650;2024-03-06T15:22:08;19.67;;;9.70;;
18917;SDS011;9591;52.742;13.650;2024-03-06T15:24:58;17.10;;;8.93;;
18917;SDS011;9591;52.742;13.650;2024-03-06T15:27:45;17.80;;;9.73;;
18917;SDS011;9591;52.742;13.650;2024-03-06T15:30:34;17.23;;;9.17;;
18917;SDS011;9591;52.742;13.650;2024-03-06T15:33:23;16.13;;;8.47;;
18917;SDS011;9591;52.742;13.650;2024-03-06T15:36:14;16.33;;;8.40;;
18917;SDS011;9591;52.742;13.650;2024-03-06T15:39:04;17.37;;;9.47;;
18917;SDS011;9591;52.742;13.650;2024-03-06T15:41:52;15.00;;;8.13;;
18917;SDS011;9591;52.742;13.650;2024-03-06T15:44:41;19.73;;;9.23;;
18917;SDS011;9591;52.742;13.650;2024-03-06T15:47:28;17.90;;;8.80;;
18917;SDS011;9591;52.742;13.650;2024-03-06T15:50:19;17.33;;;9.40;;
18917;SDS011;9591;52.742;13.650;2024-03-06T15:53:08;19.23;;;9.70;;
18917;SDS011;9591;52.742;13.650;2024-03-06T15:55:55;19.90;;;9.43;;
18917;SDS011;9591;52.742;13.650;2024-03-06T15:58:50;18.17;;;9.17;;
18917;SDS011;9591;52.742;13.650;2024-03-06T16:01:39;21.40;;;9.97;;
18917;SDS011;9591;52.742;13.650;2024-03-06T16:04:28;16.97;;;8.83;;
18917;SDS011;9591;52.742;13.650;2024-03-06T16:07:17;19.17;;;9.53;;
18917;SDS011;9591;52.742;13.650;2024-03-06T16:10:06;16.63;;;8.97;;
18917;SDS011;9591;52.742;13.650;2024-03-06T16:12:58;17.47;;;10.03;;
18917;SDS011;9591;52.742;13.650;2024-03-06T16:15:45;15.80;;;9.57;;
18917;SDS011;9591;52.742;13.650;2024-03-06T16:18:35;18.13;;;10.23;;
18917;SDS011;9591;52.742;13.650;2024-03-06T16:21:35;15.50;;;8.40;;
18917;SDS011;9591;52.742;13.650;2024-03-06T16:24:23;17.93;;;9.27;;
18917;SDS011;9591;52.742;13.650;2024-03-06T16:27:13;15.17;;;9.40;;
18917;SDS011;9591;52.742;13.650;2024-03-06T16:30:03;17.93;;;9.90;;
18917;SDS011;9591;52.742;13.650;2024-03-06T16:32:54;17.33;;;9.80;;
18917;SDS011;9591;52.742;13.650;2024-03-06T16:35:41;19.67;;;10.20;;
18917;SDS011;9591;52.742;13.650;2024-03-06T16:38:31;18.00;;;9.90;;
18917;SDS011;9591;52.742;13.650;2024-03-06T16:41:18;19.40;;;10.27;;
18917;SDS011;9591;52.742;13.650;2024-03-06T16:44:13;23.07;;;12.00;;
18917;SDS011;9591;52.742;13.650;2024-03-06T16:47:00;18.73;;;10.57;;
18917;SDS011;9591;52.742;13.650;2024-03-06T16:49:47;20.73;;;10.60;;
18917;SDS011;9591;52.742;13.650;2024-03-06T16:52:35;20.67;;;10.17;;
18917;SDS011;9591;52.742;13.650;2024-03-06T16:55:24;19.93;;;10.23;;
18917;SDS011;9591;52.742;13.650;2024-03-06T17:01:29;19.13;;;10.13;;
18917;SDS011;9591;52.742;13.650;2024-03-06T17:04:18;19.03;;;9.60;;
18917;SDS011;9591;52.742;13.650;2024-03-06T17:07:08;19.10;;;9.40;;
18917;SDS011;9591;52.742;13.650;2024-03-06T17:09:57;17.43;;;9.50;;
18917;SDS011;9591;52.742;13.650;2024-03-06T17:12:49;15.87;;;9.57;;